createdAt,value
2019-04-28T00:00:19.028Z,10.47
2019-04-28T00:02:50.769Z,10.90
2019-04-28T00:05:21.273Z,10.53
2019-04-28T00:07:52.848Z,11.13
2019-04-28T00:10:23.278Z,10.67
2019-04-28T00:12:53.500Z,10.60
2019-04-28T00:15:24.184Z,11.10
2019-04-28T00:17:54.540Z,10.60
2019-04-28T00:20:35.488Z,10.93
2019-04-28T00:23:07.625Z,10.87
2019-04-28T00:25:41.092Z,11.20
2019-04-28T00:28:11.705Z,11.23
2019-04-28T00:30:41.853Z,10.37
2019-04-28T00:33:12.289Z,11.33
2019-04-28T00:35:43.731Z,12.20
2019-04-28T00:38:14.209Z,11.60
2019-04-28T00:40:44.436Z,12.07
2019-04-28T00:43:14.945Z,12.07
2019-04-28T00:45:45.273Z,11.67
2019-04-28T00:48:15.711Z,11.87
2019-04-28T00:50:45.934Z,11.67
2019-04-28T00:53:16.313Z,12.07
2019-04-28T00:55:46.733Z,11.60
2019-04-28T00:58:17.113Z,11.33
2019-04-28T01:00:51.273Z,12.27
2019-04-28T01:03:23.866Z,12.10
2019-04-28T01:05:53.550Z,12.53
2019-04-28T01:08:24.082Z,12.57
2019-04-28T01:10:54.557Z,12.80
2019-04-28T01:13:25.209Z,12.13
2019-04-28T01:15:59.308Z,12.97
2019-04-28T01:18:34.117Z,12.43
2019-04-28T01:21:04.472Z,12.23
2019-04-28T01:23:34.846Z,13.27
2019-04-28T01:26:05.676Z,13.67
2019-04-28T01:28:36.175Z,12.50
2019-04-28T01:31:21.263Z,12.37
2019-04-28T01:34:10.350Z,14.13
2019-04-28T01:36:40.749Z,13.77
2019-04-28T01:39:11.293Z,13.97
2019-04-28T01:41:41.667Z,14.23
2019-04-28T01:44:12.033Z,14.13
2019-04-28T01:46:42.525Z,13.07
2019-04-28T01:49:12.902Z,13.33
2019-04-28T01:51:43.187Z,14.17
2019-04-28T01:54:13.786Z,13.67
2019-04-28T01:56:44.072Z,13.33
2019-04-28T01:59:14.472Z,13.73
2019-04-28T02:01:45.310Z,14.37
2019-04-28T02:04:15.810Z,13.63
2019-04-28T02:06:46.245Z,13.87
2019-04-28T02:09:16.629Z,12.70
2019-04-28T02:11:47.045Z,12.63
2019-04-28T02:14:17.377Z,14.20
2019-04-28T02:16:47.887Z,13.40
2019-04-28T02:19:20.263Z,13.27
2019-04-28T02:21:59.520Z,13.63
2019-04-28T02:24:31.238Z,14.37
2019-04-28T02:27:01.755Z,13.43
2019-04-28T02:29:32.681Z,13.83
2019-04-28T02:32:03.737Z,13.03
2019-04-28T02:34:34.254Z,14.70
2019-04-28T02:37:04.915Z,15.17
2019-04-28T02:39:35.369Z,13.83
2019-04-28T02:42:05.950Z,14.30
2019-04-28T02:44:36.232Z,14.43
2019-04-28T02:47:06.541Z,14.37
2019-04-28T02:49:40.541Z,14.13
2019-04-28T02:52:14.893Z,14.80
2019-04-28T02:54:45.449Z,14.27
2019-04-28T02:57:16.032Z,13.57
2019-04-28T02:59:46.275Z,12.93
2019-04-28T03:02:16.846Z,13.53
2019-04-28T03:04:50.354Z,13.97
2019-04-28T03:07:21.774Z,14.47
2019-04-28T03:09:52.183Z,13.83
2019-04-28T03:12:22.857Z,14.07
2019-04-28T03:14:53.418Z,14.23
2019-04-28T03:17:23.714Z,14.00
2019-04-28T03:19:54.018Z,14.80
2019-04-28T03:22:24.544Z,13.80
2019-04-28T03:24:56.715Z,14.07
2019-04-28T03:27:43.934Z,13.53
2019-04-28T03:30:25.461Z,13.57
2019-04-28T03:33:05.045Z,14.10
2019-04-28T03:35:32.490Z,13.60
2019-04-28T03:38:01.833Z,13.97
2019-04-28T03:40:33.801Z,13.33
2019-04-28T03:43:04.680Z,12.70
2019-04-28T03:45:40.999Z,12.97
2019-04-28T03:48:11.595Z,12.93
2019-04-28T03:50:42.093Z,12.60
2019-04-28T03:53:12.389Z,12.80
2019-04-28T03:55:42.952Z,12.60
2019-04-28T03:58:13.291Z,11.63
2019-04-28T04:00:43.770Z,11.47
2019-04-28T04:03:14.345Z,11.73
2019-04-28T04:05:44.830Z,12.20
2019-04-28T04:08:15.136Z,11.17
2019-04-28T04:10:47.254Z,10.70
2019-04-28T04:13:32.642Z,11.47
2019-04-28T04:16:01.906Z,9.67
2019-04-28T04:18:34.162Z,10.13
2019-04-28T04:21:04.437Z,10.53
2019-04-28T04:23:35.105Z,9.07
2019-04-28T04:26:05.738Z,9.57
2019-04-28T04:28:36.121Z,9.53
2019-04-28T04:31:06.481Z,9.53
2019-04-28T04:33:37.203Z,9.47
2019-04-28T04:36:07.761Z,8.00
2019-04-28T04:38:43.301Z,8.10
2019-04-28T04:41:11.155Z,8.73
2019-04-28T04:43:41.976Z,7.50
2019-04-28T04:46:25.669Z,8.83
2019-04-28T04:48:56.069Z,8.03
2019-04-28T04:51:26.293Z,7.77
2019-04-28T04:53:56.793Z,7.93
2019-04-28T04:56:27.337Z,7.27
2019-04-28T04:59:02.321Z,6.67
2019-04-28T05:01:31.529Z,7.00
2019-04-28T05:04:12.365Z,7.23
2019-04-28T05:06:42.770Z,7.00
2019-04-28T05:09:13.117Z,6.73
2019-04-28T05:11:43.602Z,6.77
2019-04-28T05:14:13.889Z,6.30
2019-04-28T05:16:44.265Z,6.17
2019-04-28T05:19:14.564Z,6.33
2019-04-28T05:21:45.050Z,6.83
2019-04-28T05:24:32.228Z,6.53
2019-04-28T05:27:02.480Z,6.83
2019-04-28T05:29:32.881Z,6.53
2019-04-28T05:32:03.740Z,6.37
2019-04-28T05:34:34.274Z,6.40
2019-04-28T05:37:04.749Z,5.50
2019-04-28T05:39:37.714Z,5.57
2019-04-28T05:42:07.228Z,5.13
2019-04-28T05:44:37.841Z,5.37
2019-04-28T05:47:09.792Z,5.73
2019-04-28T05:49:51.421Z,5.40
2019-04-28T05:52:32.893Z,5.43
2019-04-28T05:55:20.512Z,5.57
2019-04-28T05:57:55.456Z,4.50
2019-04-28T06:00:42.426Z,5.43
2019-04-28T06:03:23.183Z,5.10
2019-04-28T06:05:53.736Z,4.07
2019-04-28T06:08:37.640Z,5.03
2019-04-28T06:11:25.989Z,4.30
2019-04-28T06:13:56.501Z,5.17
2019-04-28T06:16:26.921Z,4.03
2019-04-28T06:18:57.523Z,3.80
2019-04-28T06:21:27.905Z,4.80
2019-04-28T06:23:58.508Z,4.87
2019-04-28T06:26:28.877Z,3.70
2019-04-28T06:28:59.285Z,3.90
2019-04-28T06:31:29.769Z,3.63
2019-04-28T06:34:00.242Z,3.87
2019-04-28T06:36:30.669Z,3.70
2019-04-28T06:39:01.004Z,4.37
2019-04-28T06:41:31.230Z,3.30
2019-04-28T06:44:01.801Z,4.33
2019-04-28T06:46:32.634Z,4.37
2019-04-28T06:49:02.852Z,3.83
2019-04-28T06:51:33.065Z,3.60
2019-04-28T06:54:03.403Z,3.83
2019-04-28T06:56:33.752Z,3.90
2019-04-28T06:59:04.556Z,3.57
2019-04-28T07:01:34.777Z,4.30
2019-04-28T07:04:05.441Z,3.80
2019-04-28T07:06:36.041Z,3.50
2019-04-28T07:09:07.233Z,3.73
2019-04-28T07:11:37.578Z,3.67
2019-04-28T07:14:08.049Z,4.33
2019-04-28T07:16:38.413Z,3.97
2019-04-28T07:19:08.900Z,3.83
2019-04-28T07:21:40.749Z,3.33
2019-04-28T07:24:11.417Z,3.57
2019-04-28T07:26:41.876Z,3.97
2019-04-28T07:29:12.189Z,3.30
2019-04-28T07:31:42.725Z,4.23
2019-04-28T07:34:13.294Z,3.57
2019-04-28T07:36:43.715Z,3.53
2019-04-28T07:39:14.209Z,3.23
2019-04-28T07:41:44.883Z,3.40
2019-04-28T07:44:15.281Z,3.47
2019-04-28T07:46:45.490Z,4.10
2019-04-28T07:49:16.152Z,3.20
2019-04-28T07:52:04.590Z,3.23
2019-04-28T07:54:35.002Z,3.90
2019-04-28T07:57:05.514Z,3.83
2019-04-28T07:59:35.996Z,3.67
2019-04-28T08:02:06.421Z,4.13
2019-04-28T08:04:36.939Z,4.23
2019-04-28T08:07:07.234Z,3.63
2019-04-28T08:09:37.581Z,3.40
2019-04-28T08:12:08.125Z,3.10
2019-04-28T08:14:38.666Z,3.20
2019-04-28T08:17:08.921Z,2.93
2019-04-28T08:19:39.285Z,3.60
2019-04-28T08:22:09.878Z,3.33
2019-04-28T08:24:40.337Z,3.57
2019-04-28T08:27:10.961Z,3.23
2019-04-28T08:29:41.477Z,3.43
2019-04-28T08:32:28.448Z,3.53
2019-04-28T08:34:58.832Z,3.23
2019-04-28T08:37:29.327Z,3.50
2019-04-28T08:39:59.705Z,3.80
2019-04-28T08:42:29.953Z,3.07
2019-04-28T08:45:00.369Z,3.40
2019-04-28T08:47:30.714Z,3.43
2019-04-28T08:50:01.099Z,3.07
2019-04-28T08:52:31.381Z,3.47
2019-04-28T08:55:01.862Z,3.50
2019-04-28T08:57:32.465Z,2.77
2019-04-28T09:00:04.301Z,2.53
2019-04-28T09:02:35.065Z,3.30
2019-04-28T09:05:06.117Z,3.23
2019-04-28T09:07:36.461Z,3.17
2019-04-28T09:10:07.374Z,2.97
2019-04-28T09:12:37.754Z,2.50
2019-04-28T09:15:08.813Z,2.30
2019-04-28T09:17:39.120Z,3.57
2019-04-28T09:20:09.773Z,2.50
2019-04-28T09:22:40.177Z,2.67
2019-04-28T09:25:10.837Z,2.33
2019-04-28T09:27:41.247Z,2.47
2019-04-28T09:30:12.237Z,2.60
2019-04-28T09:32:42.832Z,2.60
2019-04-28T09:35:13.505Z,2.27
2019-04-28T09:37:43.889Z,2.47
2019-04-28T09:40:16.095Z,2.23
2019-04-28T09:43:06.549Z,2.17
2019-04-28T09:45:44.452Z,2.00
2019-04-28T09:48:14.748Z,3.17
2019-04-28T09:50:46.789Z,2.13
2019-04-28T09:53:17.381Z,2.73
2019-04-28T09:55:48.044Z,2.17
2019-04-28T09:58:18.709Z,2.40
2019-04-28T10:00:49.201Z,2.50
2019-04-28T10:03:19.473Z,1.90
2019-04-28T10:05:49.761Z,2.40
2019-04-28T10:08:20.236Z,2.47
2019-04-28T10:10:50.790Z,2.10
2019-04-28T10:13:21.084Z,2.50
2019-04-28T10:15:51.706Z,2.30
2019-04-28T10:18:21.935Z,2.70
2019-04-28T10:20:52.515Z,2.07
2019-04-28T10:23:23.354Z,2.13
2019-04-28T10:25:54.104Z,1.90
2019-04-28T10:28:24.529Z,1.90
2019-04-28T10:30:55.180Z,2.53
2019-04-28T10:33:25.711Z,2.37
2019-04-28T10:35:56.364Z,2.70
2019-04-28T10:38:27.045Z,2.73
2019-04-28T10:41:05.453Z,3.03
2019-04-28T10:43:35.949Z,3.03
2019-04-28T10:46:06.613Z,2.23
2019-04-28T10:48:37.166Z,2.23
2019-04-28T10:51:07.752Z,2.20
2019-04-28T10:53:38.233Z,2.30
2019-04-28T10:56:08.829Z,2.63
2019-04-28T10:58:41.173Z,2.20
2019-04-28T11:01:11.829Z,2.70
2019-04-28T11:03:44.058Z,2.33
2019-04-28T11:06:14.782Z,2.50
2019-04-28T11:08:55.889Z,2.07
2019-04-28T11:11:26.726Z,2.80
2019-04-28T11:13:57.518Z,1.93
2019-04-28T11:16:30.021Z,2.40
2019-04-28T11:19:00.481Z,2.23
2019-04-28T11:21:31.036Z,3.53
2019-04-28T11:24:01.656Z,1.87
2019-04-28T11:26:32.337Z,2.53
2019-04-28T11:29:04.712Z,2.00
2019-04-28T11:31:35.632Z,2.40
2019-04-28T11:34:19.702Z,2.63
2019-04-28T11:36:50.370Z,2.20
2019-04-28T11:39:22.943Z,2.13
2019-04-28T11:41:53.381Z,3.03
2019-04-28T11:44:24.045Z,2.50
2019-04-28T11:46:54.813Z,1.83
2019-04-28T11:49:25.289Z,2.37
2019-04-28T11:51:55.822Z,2.50
2019-04-28T11:54:26.333Z,2.20
2019-04-28T11:56:57.026Z,2.40
2019-04-28T11:59:27.580Z,2.30
2019-04-28T12:01:58.409Z,1.73
2019-04-28T12:04:29.053Z,2.20
2019-04-28T12:06:59.345Z,2.50
2019-04-28T12:09:40.601Z,2.13
2019-04-28T12:12:15.309Z,2.58
2019-04-28T12:14:56.484Z,2.23
2019-04-28T12:17:46.672Z,2.03
2019-04-28T12:20:18.876Z,2.53
2019-04-28T12:22:49.637Z,2.47
2019-04-28T12:25:20.333Z,2.00
2019-04-28T12:27:51.107Z,2.47
2019-04-28T12:30:21.837Z,2.10
2019-04-28T12:32:52.429Z,2.17
2019-04-28T12:35:23.032Z,2.00
2019-04-28T12:37:53.500Z,2.00
2019-04-28T12:40:23.978Z,2.30
2019-04-28T12:42:54.558Z,2.17
2019-04-28T12:45:34.882Z,2.83
2019-04-28T12:47:57.180Z,2.27
2019-04-28T12:50:44.273Z,2.17
2019-04-28T12:53:14.952Z,2.23
2019-04-28T12:55:45.525Z,1.80
2019-04-28T12:58:15.833Z,2.03
2019-04-28T13:00:54.357Z,2.30
2019-04-28T13:03:35.488Z,2.10
2019-04-28T13:06:07.597Z,2.30
2019-04-28T13:08:38.263Z,2.10
2019-04-28T13:11:08.913Z,2.23
2019-04-28T13:13:39.508Z,2.40
2019-04-28T13:16:09.960Z,2.40
2019-04-28T13:18:40.256Z,1.93
2019-04-28T13:21:10.761Z,2.03
2019-04-28T13:23:41.409Z,1.80
2019-04-28T13:26:12.232Z,2.90
2019-04-28T13:28:42.536Z,2.57
2019-04-28T13:31:12.957Z,1.80
2019-04-28T13:33:55.979Z,1.93
2019-04-28T13:36:15.973Z,1.90
2019-04-28T13:38:46.397Z,1.90
2019-04-28T13:41:16.826Z,2.30
2019-04-28T13:43:47.368Z,2.30
2019-04-28T13:46:18.025Z,2.40
2019-04-28T13:48:48.542Z,2.47
2019-04-28T13:51:18.901Z,2.20
2019-04-28T13:53:49.309Z,2.17
2019-04-28T13:56:19.799Z,2.43
2019-04-28T13:58:51.715Z,2.80
2019-04-28T14:01:30.253Z,2.03
2019-04-28T14:04:05.509Z,1.97
2019-04-28T14:06:37.748Z,2.57
2019-04-28T14:09:10.761Z,2.10
2019-04-28T14:11:41.952Z,2.33
2019-04-28T14:14:12.317Z,1.87
2019-04-28T14:16:42.903Z,1.93
2019-04-28T14:19:13.409Z,2.50
2019-04-28T14:21:43.965Z,1.80
2019-04-28T14:24:14.557Z,3.20
2019-04-28T14:26:45.293Z,2.00
2019-04-28T14:29:16.003Z,1.43
2019-04-28T14:31:46.453Z,2.27
2019-04-28T14:34:17.174Z,1.90
2019-04-28T14:36:47.625Z,2.27
2019-04-28T14:39:18.172Z,2.93
2019-04-28T14:41:48.877Z,1.93
2019-04-28T14:44:19.473Z,1.73
2019-04-28T14:46:50.045Z,4.17
2019-04-28T14:49:20.532Z,1.37
2019-04-28T14:51:51.057Z,1.67
2019-04-28T14:54:21.725Z,4.17
2019-04-28T14:56:52.279Z,7.40
2019-04-28T14:59:22.950Z,1.67
2019-04-28T15:02:11.558Z,2.13
2019-04-28T15:04:49.502Z,1.30
2019-04-28T15:07:33.904Z,1.20
2019-04-28T15:10:09.167Z,1.10
2019-04-28T15:12:39.598Z,1.93
2019-04-28T15:15:10.357Z,1.60
2019-04-28T15:17:40.900Z,1.10
2019-04-28T15:20:11.741Z,0.80
2019-04-28T15:22:42.598Z,1.00
2019-04-28T15:25:13.131Z,0.87
2019-04-28T15:27:43.533Z,1.00
2019-04-28T15:30:14.353Z,0.97
2019-04-28T15:32:44.854Z,1.60
2019-04-28T15:35:15.433Z,0.57
2019-04-28T15:37:47.533Z,0.87
2019-04-28T15:40:18.257Z,0.80
2019-04-28T15:42:48.749Z,1.00
2019-04-28T15:45:19.317Z,1.37
2019-04-28T15:47:49.804Z,3.63
2019-04-28T15:50:20.414Z,7.13
2019-04-28T15:52:50.977Z,0.90
2019-04-28T15:55:23.213Z,0.70
2019-04-28T15:57:53.784Z,0.90
2019-04-28T16:00:24.326Z,0.80
2019-04-28T16:02:54.875Z,1.00
2019-04-28T16:05:25.537Z,0.77
2019-04-28T16:07:55.979Z,1.00
2019-04-28T16:10:26.391Z,0.90
2019-04-28T16:12:57.128Z,1.13
2019-04-28T16:15:27.493Z,1.20
2019-04-28T16:17:57.825Z,1.20
2019-04-28T16:20:29.854Z,1.10
2019-04-28T16:23:00.582Z,1.20
2019-04-28T16:25:31.181Z,1.00
2019-04-28T16:28:01.740Z,1.90
2019-04-28T16:30:32.510Z,1.20
2019-04-28T16:33:03.258Z,4.00
2019-04-28T16:35:33.958Z,1.30
2019-04-28T16:38:04.805Z,1.20
2019-04-28T16:41:05.670Z,1.10
2019-04-28T16:43:40.372Z,1.20
2019-04-28T16:46:10.781Z,1.10
2019-04-28T16:48:41.352Z,1.10
2019-04-28T16:51:14.520Z,1.10
2019-04-28T16:53:43.938Z,1.20
2019-04-28T16:56:18.873Z,1.03
2019-04-28T16:58:50.929Z,1.00
2019-04-28T17:01:28.733Z,1.17
2019-04-28T17:03:59.252Z,1.13
2019-04-28T17:06:29.549Z,1.30
2019-04-28T17:08:59.857Z,1.30
2019-04-28T17:11:30.493Z,0.90
2019-04-28T17:14:01.210Z,1.07
2019-04-28T17:16:31.565Z,1.17
2019-04-28T17:19:02.101Z,1.20
2019-04-28T17:21:32.316Z,1.10
2019-04-28T17:24:03.025Z,1.27
2019-04-28T17:26:33.369Z,1.20
2019-04-28T17:29:04.176Z,1.30
2019-04-28T17:31:34.861Z,1.23
2019-04-28T17:34:05.598Z,1.13
2019-04-28T17:36:36.260Z,1.20
2019-04-28T17:39:10.324Z,1.13
2019-04-28T17:41:40.864Z,1.20
2019-04-28T17:44:11.349Z,1.73
2019-04-28T17:46:41.894Z,1.30
2019-04-28T17:49:12.375Z,1.80
2019-04-28T17:51:43.278Z,1.47
2019-04-28T17:54:13.849Z,1.20
2019-04-28T17:56:44.402Z,1.30
2019-04-28T17:59:14.877Z,1.60
2019-04-28T18:01:53.389Z,1.50
2019-04-28T18:04:25.621Z,1.40
2019-04-28T18:06:57.841Z,1.33
2019-04-28T18:09:28.727Z,1.40
2019-04-28T18:11:59.235Z,1.30
2019-04-28T18:14:29.889Z,1.40
2019-04-28T18:17:07.510Z,1.20
2019-04-28T18:19:38.101Z,1.40
2019-04-28T18:22:08.681Z,1.60
2019-04-28T18:24:40.158Z,1.90
2019-04-28T18:27:10.711Z,1.50
2019-04-28T18:29:41.297Z,1.40
2019-04-28T18:32:28.873Z,1.50
2019-04-28T18:35:06.509Z,1.33
2019-04-28T18:37:38.565Z,1.60
2019-04-28T18:40:22.445Z,1.43
2019-04-28T18:43:10.885Z,1.40
2019-04-28T18:45:41.462Z,1.50
2019-04-28T18:48:11.957Z,1.60
2019-04-28T18:50:42.657Z,1.30
2019-04-28T18:53:12.982Z,1.47
2019-04-28T18:55:43.406Z,1.33
2019-04-28T18:58:13.926Z,1.87
2019-04-28T19:00:46.381Z,1.40
2019-04-28T19:03:16.889Z,1.90
2019-04-28T19:05:49.223Z,1.77
2019-04-28T19:08:21.443Z,1.57
2019-04-28T19:11:02.134Z,1.60
2019-04-28T19:13:34.165Z,1.73
2019-04-28T19:16:12.303Z,1.53
2019-04-28T19:18:44.433Z,1.60
2019-04-28T19:21:14.780Z,1.70
2019-04-28T19:23:45.173Z,1.80
2019-04-28T19:26:15.748Z,2.37
2019-04-28T19:28:45.957Z,2.10
2019-04-28T19:31:16.489Z,2.20
2019-04-28T19:33:46.778Z,1.70
2019-04-28T19:36:17.332Z,1.70
2019-04-28T19:38:47.709Z,1.60
2019-04-28T19:41:18.026Z,1.53
2019-04-28T19:43:48.441Z,1.80
2019-04-28T19:46:19.318Z,1.60
2019-04-28T19:48:49.607Z,1.43
2019-04-28T19:51:31.230Z,1.57
2019-04-28T19:53:52.325Z,1.40
2019-04-28T19:56:30.601Z,1.60
2019-04-28T19:59:09.005Z,1.63
2019-04-28T20:01:39.206Z,1.77
2019-04-28T20:04:09.705Z,1.50
2019-04-28T20:06:40.181Z,2.03
2019-04-28T20:09:10.393Z,1.80
2019-04-28T20:11:40.733Z,1.70
2019-04-28T20:14:11.148Z,1.30
2019-04-28T20:16:41.833Z,1.50
2019-04-28T20:19:12.392Z,1.40
2019-04-28T20:21:43.122Z,1.97
2019-04-28T20:24:13.608Z,1.50
2019-04-28T20:26:43.949Z,1.47
2019-04-28T20:29:14.558Z,1.63
2019-04-28T20:31:45.237Z,1.60
2019-04-28T20:34:15.717Z,1.53
2019-04-28T20:36:53.985Z,1.50
2019-04-28T20:39:31.885Z,1.80
2019-04-28T20:42:06.621Z,1.80
2019-04-28T20:44:37.114Z,1.80
2019-04-28T20:47:07.609Z,1.77
2019-04-28T20:49:37.917Z,1.63
2019-04-28T20:52:08.438Z,1.67
2019-04-28T20:54:38.906Z,1.80
2019-04-28T20:57:09.297Z,2.00
2019-04-28T20:59:39.569Z,1.70
2019-04-28T21:02:10.110Z,1.90
2019-04-28T21:04:40.857Z,1.60
2019-04-28T21:07:11.424Z,1.23
2019-04-28T21:09:41.633Z,1.40
2019-04-28T21:12:11.839Z,1.60
2019-04-28T21:14:42.324Z,1.93
2019-04-28T21:17:12.809Z,1.50
2019-04-28T21:19:43.213Z,1.90
2019-04-28T21:22:13.705Z,2.23
2019-04-28T21:24:44.073Z,1.70
2019-04-28T21:27:14.600Z,1.70
2019-04-28T21:29:45.138Z,1.60
2019-04-28T21:32:15.771Z,1.80
2019-04-28T21:34:46.221Z,1.53
2019-04-28T21:37:18.453Z,1.67
2019-04-28T21:39:48.639Z,1.60
2019-04-28T21:42:20.564Z,1.50
2019-04-28T21:44:58.378Z,1.93
2019-04-28T21:47:30.393Z,1.80
2019-04-28T21:50:00.665Z,1.80
2019-04-28T21:52:30.882Z,2.07
2019-04-28T21:55:01.165Z,2.23
2019-04-28T21:57:31.436Z,1.97
2019-04-28T22:00:01.585Z,2.03
2019-04-28T22:02:36.010Z,1.43
2019-04-28T22:05:07.538Z,2.20
2019-04-28T22:07:38.046Z,1.90
2019-04-28T22:10:08.360Z,1.97
2019-04-28T22:12:38.852Z,1.60
2019-04-28T22:15:09.506Z,2.00
2019-04-28T22:17:39.747Z,1.60
2019-04-28T22:20:10.722Z,1.80
2019-04-28T22:22:41.037Z,2.03
2019-04-28T22:25:15.846Z,1.90
2019-04-28T22:27:46.158Z,1.90
2019-04-28T22:30:18.146Z,1.90
2019-04-28T22:32:48.462Z,1.90
2019-04-28T22:35:18.902Z,1.90
2019-04-28T22:37:49.282Z,1.80
2019-04-28T22:40:19.665Z,1.97
2019-04-28T22:42:49.982Z,2.43
2019-04-28T22:45:20.522Z,1.80
2019-04-28T22:47:50.901Z,1.80
2019-04-28T22:50:36.607Z,1.70
2019-04-28T22:53:07.236Z,2.43
2019-04-28T22:55:39.257Z,1.80
2019-04-28T22:58:14.092Z,1.90
2019-04-28T23:00:46.417Z,2.03
2019-04-28T23:03:24.069Z,2.00
2019-04-28T23:05:54.515Z,2.10
2019-04-28T23:08:24.969Z,1.93
2019-04-28T23:10:55.753Z,2.03
2019-04-28T23:13:26.125Z,2.07
2019-04-28T23:15:56.494Z,1.90
2019-04-28T23:18:27.520Z,2.20
2019-04-28T23:21:04.987Z,1.97
2019-04-28T23:23:35.313Z,1.80
2019-04-28T23:26:05.974Z,2.07
2019-04-28T23:28:36.552Z,2.20
2019-04-28T23:31:07.002Z,2.10
2019-04-28T23:33:37.316Z,1.93
2019-04-28T23:36:07.850Z,2.30
2019-04-28T23:38:38.168Z,1.97
2019-04-28T23:41:10.343Z,1.90
2019-04-28T23:43:40.573Z,1.80
2019-04-28T23:46:11.028Z,1.73
2019-04-28T23:48:41.261Z,2.40
2019-04-28T23:51:15.858Z,2.23
2019-04-28T23:54:03.046Z,2.03
2019-04-28T23:56:33.628Z,2.00
2019-04-28T23:59:03.894Z,2.17
